createdAt,value
2023-05-20T00:01:51.929Z,12.64
2023-05-20T00:04:18.721Z,12.64
2023-05-20T00:06:45.531Z,12.56
2023-05-20T00:09:12.369Z,12.49
2023-05-20T00:11:38.956Z,12.38
2023-05-20T00:14:05.628Z,12.34
2023-05-20T00:16:32.272Z,12.27
2023-05-20T00:18:59.005Z,12.29
2023-05-20T00:21:25.654Z,12.13
2023-05-20T00:23:52.300Z,12.05
2023-05-20T00:26:19.237Z,12.07
2023-05-20T00:28:52.117Z,11.99
2023-05-20T00:31:18.819Z,11.92
2023-05-20T00:33:45.718Z,11.87
2023-05-20T00:36:12.386Z,11.79
2023-05-20T00:38:38.988Z,11.78
2023-05-20T00:41:05.731Z,11.75
2023-05-20T00:43:32.372Z,11.69
2023-05-20T00:45:59.106Z,11.70
2023-05-20T00:48:25.746Z,11.72
2023-05-20T00:50:52.627Z,11.74
2023-05-20T00:53:21.229Z,11.70
2023-05-20T00:55:47.942Z,11.64
2023-05-20T00:58:14.758Z,11.64
2023-05-20T01:00:42.798Z,11.58
2023-05-20T01:03:10.044Z,11.56
2023-05-20T01:05:38.163Z,11.60
2023-05-20T01:08:06.971Z,11.56
2023-05-20T01:10:34.199Z,11.58
2023-05-20T01:13:05.465Z,11.57
2023-05-20T01:15:32.523Z,11.60
2023-05-20T01:18:02.464Z,11.57
2023-05-20T01:20:32.492Z,11.67
2023-05-20T01:22:59.352Z,11.64
2023-05-20T01:25:26.531Z,11.58
2023-05-20T01:27:54.660Z,11.59
2023-05-20T01:30:24.325Z,11.48
2023-05-20T01:32:55.596Z,11.42
2023-05-20T01:35:23.136Z,11.38
2023-05-20T01:37:52.465Z,11.37
2023-05-20T01:40:20.001Z,11.29
2023-05-20T01:42:46.746Z,11.22
2023-05-20T01:45:13.414Z,11.28
2023-05-20T01:47:40.122Z,11.15
2023-05-20T01:50:07.490Z,11.12
2023-05-20T01:52:34.950Z,11.12
2023-05-20T01:55:02.470Z,11.15
2023-05-20T01:57:29.450Z,11.16
2023-05-20T01:59:56.097Z,11.27
2023-05-20T02:02:22.855Z,11.22
2023-05-20T02:04:51.463Z,11.16
2023-05-20T02:07:19.338Z,11.30
2023-05-20T02:09:46.655Z,11.14
2023-05-20T02:12:16.948Z,11.15
2023-05-20T02:14:45.386Z,10.98
2023-05-20T02:17:12.784Z,10.92
2023-05-20T02:19:39.537Z,10.89
2023-05-20T02:22:06.996Z,10.85
2023-05-20T02:24:33.703Z,10.89
2023-05-20T02:27:00.485Z,10.91
2023-05-20T02:29:27.175Z,11.01
2023-05-20T02:31:53.840Z,10.93
2023-05-20T02:34:21.837Z,10.92
2023-05-20T02:36:48.561Z,10.99
2023-05-20T02:39:16.981Z,10.87
2023-05-20T02:41:43.631Z,10.82
2023-05-20T02:44:10.333Z,10.89
2023-05-20T02:46:36.954Z,10.88
2023-05-20T02:49:04.033Z,10.85
2023-05-20T02:51:32.061Z,10.73
2023-05-20T02:53:59.242Z,10.68
2023-05-20T02:56:27.126Z,10.69
2023-05-20T02:58:54.145Z,10.59
2023-05-20T03:01:20.833Z,10.57
2023-05-20T03:03:47.745Z,10.54
2023-05-20T03:06:14.400Z,10.53
2023-05-20T03:08:42.785Z,10.51
2023-05-20T03:11:09.572Z,10.50
2023-05-20T03:13:36.262Z,10.45
2023-05-20T03:16:03.197Z,10.41
2023-05-20T03:18:29.971Z,10.39
2023-05-20T03:20:56.862Z,10.39
2023-05-20T03:23:24.029Z,10.42
2023-05-20T03:25:50.816Z,10.45
2023-05-20T03:28:17.465Z,10.51
2023-05-20T03:30:44.216Z,10.49
2023-05-20T03:33:11.542Z,10.51
2023-05-20T03:35:38.168Z,10.56
2023-05-20T03:38:04.788Z,10.53
2023-05-20T03:40:33.627Z,10.59
2023-05-20T03:43:00.377Z,10.61
2023-05-20T03:45:27.064Z,10.69
2023-05-20T03:48:04.296Z,10.76
2023-05-20T03:50:33.409Z,10.88
2023-05-20T03:53:00.857Z,10.93
2023-05-20T03:55:32.553Z,11.07
2023-05-20T03:58:00.539Z,11.28
2023-05-20T04:00:27.815Z,11.57
2023-05-20T04:02:56.252Z,11.63
2023-05-20T04:05:24.636Z,11.66
2023-05-20T04:07:51.422Z,11.65
2023-05-20T04:10:20.589Z,11.57
2023-05-20T04:12:47.369Z,11.60
2023-05-20T04:15:15.043Z,11.66
2023-05-20T04:18:01.503Z,11.66
2023-05-20T04:20:28.850Z,11.70
2023-05-20T04:22:57.302Z,11.82
2023-05-20T04:25:24.156Z,11.83
2023-05-20T04:27:50.973Z,11.78
2023-05-20T04:30:18.531Z,11.82
2023-05-20T04:32:45.188Z,11.91
2023-05-20T04:35:13.840Z,12.10
2023-05-20T04:37:44.654Z,12.35
2023-05-20T04:40:12.607Z,12.67
2023-05-20T04:42:39.776Z,13.00
2023-05-20T04:45:08.841Z,13.42
2023-05-20T04:47:39.125Z,13.87
2023-05-20T04:50:10.718Z,14.15
2023-05-20T04:52:39.048Z,14.33
2023-05-20T04:55:12.596Z,14.53
2023-05-20T04:57:42.266Z,14.69
2023-05-20T05:00:12.700Z,14.71
2023-05-20T05:02:39.975Z,14.77
2023-05-20T05:05:07.353Z,14.73
2023-05-20T05:07:34.020Z,14.84
2023-05-20T05:10:02.200Z,14.69
2023-05-20T05:12:30.979Z,14.49
2023-05-20T05:14:58.864Z,14.77
2023-05-20T05:17:26.325Z,14.68
2023-05-20T05:19:52.990Z,14.73
2023-05-20T05:22:19.644Z,14.88
2023-05-20T05:24:46.323Z,14.97
2023-05-20T05:27:13.137Z,15.21
2023-05-20T05:29:39.917Z,15.37
2023-05-20T05:32:06.920Z,15.44
2023-05-20T05:34:33.622Z,15.65
2023-05-20T05:37:00.234Z,15.92
2023-05-20T05:39:27.116Z,15.99
2023-05-20T05:41:57.287Z,15.80
2023-05-20T05:44:24.316Z,15.79
2023-05-20T05:46:51.151Z,16.13
2023-05-20T05:49:17.812Z,16.10
2023-05-20T05:51:44.721Z,16.02
2023-05-20T05:54:11.976Z,16.25
2023-05-20T05:56:38.770Z,16.39
2023-05-20T05:59:05.466Z,16.63
2023-05-20T06:01:32.168Z,16.69
2023-05-20T06:03:59.381Z,16.71
2023-05-20T06:06:26.604Z,17.20
2023-05-20T06:08:53.784Z,17.64
2023-05-20T06:11:21.740Z,18.03
2023-05-20T06:13:48.409Z,17.82
2023-05-20T06:16:15.042Z,17.57
2023-05-20T06:18:41.691Z,17.82
2023-05-20T06:21:09.158Z,17.52
2023-05-20T06:23:35.802Z,17.59
2023-05-20T06:26:04.979Z,17.87
2023-05-20T06:28:31.908Z,18.40
2023-05-20T06:30:58.600Z,18.87
2023-05-20T06:33:28.440Z,18.93
2023-05-20T06:36:01.692Z,19.09
2023-05-20T06:38:28.700Z,18.95
2023-05-20T06:40:55.545Z,18.20
2023-05-20T06:43:22.288Z,18.24
2023-05-20T06:45:54.409Z,17.77
2023-05-20T06:48:28.834Z,17.89
2023-05-20T06:50:57.006Z,17.43
2023-05-20T06:53:23.806Z,17.58
2023-05-20T06:55:50.441Z,18.23
2023-05-20T06:58:17.141Z,17.42
2023-05-20T07:00:44.032Z,17.71
2023-05-20T07:03:11.715Z,18.56
2023-05-20T07:05:38.528Z,19.38
2023-05-20T07:08:06.617Z,19.54
2023-05-20T07:10:33.430Z,19.66
2023-05-20T07:13:00.254Z,19.85
2023-05-20T07:15:26.966Z,20.19
2023-05-20T07:17:53.953Z,20.67
2023-05-20T07:20:21.244Z,20.80
2023-05-20T07:22:50.718Z,21.06
2023-05-20T07:25:36.200Z,20.98
2023-05-20T07:28:03.083Z,20.72
2023-05-20T07:30:29.797Z,21.18
2023-05-20T07:33:22.711Z,20.76
2023-05-20T07:35:49.406Z,20.44
2023-05-20T07:38:16.333Z,21.05
2023-05-20T07:40:44.963Z,20.53
2023-05-20T07:43:11.617Z,21.16
2023-05-20T07:45:38.538Z,20.67
2023-05-20T07:48:08.689Z,20.67
2023-05-20T07:50:36.017Z,21.24
2023-05-20T07:53:02.728Z,21.31
2023-05-20T07:55:33.766Z,21.47
2023-05-20T07:58:00.736Z,21.62
2023-05-20T08:00:27.422Z,21.56
2023-05-20T08:02:54.247Z,21.00
2023-05-20T08:05:30.000Z,21.31
2023-05-20T08:07:58.787Z,21.37
2023-05-20T08:10:28.091Z,21.75
2023-05-20T08:12:55.106Z,22.13
2023-05-20T08:15:21.763Z,22.31
2023-05-20T08:17:48.692Z,22.53
2023-05-20T08:20:15.467Z,22.12
2023-05-20T08:22:42.134Z,22.65
2023-05-20T08:25:09.296Z,21.13
2023-05-20T08:27:36.803Z,20.73
2023-05-20T08:30:05.646Z,21.79
2023-05-20T08:32:32.401Z,21.14
2023-05-20T08:35:01.756Z,21.42
2023-05-20T08:37:29.168Z,21.20
2023-05-20T08:39:56.001Z,22.27
2023-05-20T08:42:24.127Z,22.54
2023-05-20T08:44:54.149Z,22.93
2023-05-20T08:47:22.077Z,21.34
2023-05-20T08:49:49.514Z,22.00
2023-05-20T08:52:18.125Z,21.81
2023-05-20T08:54:46.927Z,21.73
2023-05-20T08:57:16.812Z,22.10
2023-05-20T08:59:44.723Z,21.64
2023-05-20T09:02:11.685Z,22.08
2023-05-20T09:04:38.552Z,22.42
2023-05-20T09:07:05.443Z,22.87
2023-05-20T09:09:33.798Z,22.77
2023-05-20T09:12:03.077Z,22.42
2023-05-20T09:14:31.081Z,22.58
2023-05-20T09:16:57.852Z,22.39
2023-05-20T09:19:24.863Z,22.93
2023-05-20T09:21:54.082Z,22.99
2023-05-20T09:24:23.368Z,22.05
2023-05-20T09:26:50.284Z,22.49
2023-05-20T09:29:16.936Z,22.47
2023-05-20T09:31:43.640Z,22.79
2023-05-20T09:34:10.270Z,22.48
2023-05-20T09:36:39.717Z,23.00
2023-05-20T09:39:09.953Z,23.33
2023-05-20T09:42:03.963Z,22.26
2023-05-20T09:44:31.644Z,22.00
2023-05-20T09:46:59.184Z,22.45
2023-05-20T09:49:26.921Z,22.31
2023-05-20T09:51:53.747Z,23.08
2023-05-20T09:54:21.184Z,23.32
2023-05-20T09:56:48.109Z,22.72
2023-05-20T10:01:46.122Z,23.82
2023-05-20T10:04:14.056Z,23.75
2023-05-20T10:06:51.096Z,24.07
2023-05-20T10:09:56.473Z,24.14
2023-05-20T10:12:32.112Z,23.81
2023-05-20T10:15:11.189Z,23.83
2023-05-20T10:18:02.818Z,23.52
2023-05-20T10:20:29.580Z,23.96
2023-05-20T10:22:58.122Z,24.01
2023-05-20T10:25:27.324Z,23.48
2023-05-20T10:28:07.857Z,23.30
2023-05-20T10:30:35.094Z,23.10
2023-05-20T10:33:06.691Z,23.51
2023-05-20T10:35:33.675Z,24.16
2023-05-20T10:38:11.221Z,24.63
2023-05-20T10:40:38.194Z,24.66
2023-05-20T10:43:12.606Z,25.10
2023-05-20T10:45:52.964Z,25.50
2023-05-20T10:48:25.983Z,26.15
2023-05-20T10:50:57.423Z,26.49
2023-05-20T10:53:33.573Z,26.73
2023-05-20T10:56:01.665Z,27.12
2023-05-20T10:58:28.302Z,27.17
2023-05-20T11:00:56.190Z,27.58
2023-05-20T11:03:23.485Z,27.77
2023-05-20T11:05:50.665Z,27.86
2023-05-20T11:08:28.683Z,27.89
2023-05-20T11:10:59.408Z,27.67
2023-05-20T11:13:27.085Z,27.47
2023-05-20T11:15:54.233Z,27.48
2023-05-20T11:18:20.976Z,27.73
2023-05-20T11:20:47.833Z,27.64
2023-05-20T11:23:15.458Z,27.66
2023-05-20T11:25:42.197Z,27.75
2023-05-20T11:28:19.790Z,28.23
2023-05-20T11:30:46.525Z,28.32
2023-05-20T11:33:14.201Z,28.56
2023-05-20T11:35:52.862Z,28.95
2023-05-20T11:38:20.702Z,28.94
2023-05-20T11:40:54.628Z,28.75
2023-05-20T11:43:22.682Z,28.63
2023-05-20T11:45:59.384Z,28.83
2023-05-20T11:48:26.242Z,28.72
2023-05-20T11:50:54.472Z,28.82
2023-05-20T11:53:22.645Z,29.49
2023-05-20T11:55:52.976Z,29.59
2023-05-20T11:58:22.074Z,30.04
2023-05-20T12:00:55.022Z,30.11
2023-05-20T12:03:23.869Z,30.03
2023-05-20T12:05:51.336Z,29.90
2023-05-20T12:08:18.207Z,30.08
2023-05-20T12:10:47.720Z,30.26
2023-05-20T12:13:14.490Z,30.43
2023-05-20T12:15:41.362Z,30.73
2023-05-20T12:18:08.274Z,30.81
2023-05-20T12:20:35.481Z,30.12
2023-05-20T12:23:02.412Z,29.92
2023-05-20T12:25:29.384Z,29.74
2023-05-20T12:27:56.243Z,29.51
2023-05-20T12:30:24.027Z,29.92
2023-05-20T12:32:51.759Z,30.11
2023-05-20T12:35:36.192Z,30.24
2023-05-20T12:38:03.033Z,29.92
2023-05-20T12:40:29.631Z,29.89
2023-05-20T12:42:56.443Z,29.85
2023-05-20T12:45:23.084Z,29.74
2023-05-20T12:47:49.960Z,29.81
2023-05-20T12:50:16.779Z,30.26
2023-05-20T12:52:43.443Z,30.16
2023-05-20T12:55:13.869Z,30.09
2023-05-20T12:57:41.414Z,30.12
2023-05-20T13:00:08.779Z,30.15
2023-05-20T13:02:37.719Z,29.88
2023-05-20T13:05:06.336Z,29.96
2023-05-20T13:07:33.195Z,30.13
2023-05-20T13:10:00.217Z,30.30
2023-05-20T13:12:26.959Z,30.18
2023-05-20T13:14:53.675Z,29.92
2023-05-20T13:17:20.276Z,29.98
2023-05-20T13:19:47.037Z,30.44
2023-05-20T13:22:13.777Z,30.22
2023-05-20T13:24:40.515Z,30.30
2023-05-20T13:27:07.164Z,30.41
2023-05-20T13:29:33.810Z,30.59
2023-05-20T13:32:02.065Z,30.49
2023-05-20T13:34:30.374Z,30.76
2023-05-20T13:36:57.183Z,31.37
2023-05-20T13:39:23.804Z,32.21
2023-05-20T13:41:50.860Z,32.63
2023-05-20T13:44:17.492Z,33.60
2023-05-20T13:46:44.205Z,34.80
2023-05-20T13:49:10.854Z,34.98
2023-05-20T13:51:37.465Z,36.12
2023-05-20T13:54:04.186Z,37.05
2023-05-20T13:56:30.811Z,37.14
2023-05-20T13:58:57.452Z,37.88
2023-05-20T14:01:24.184Z,38.75
2023-05-20T14:03:51.041Z,39.93
2023-05-20T14:06:19.025Z,40.52
2023-05-20T14:08:46.225Z,40.83
2023-05-20T14:11:12.950Z,40.97
2023-05-20T14:13:39.598Z,41.94
2023-05-20T14:16:06.420Z,40.85
2023-05-20T14:18:33.104Z,39.48
2023-05-20T14:20:59.786Z,38.66
2023-05-20T14:23:26.423Z,36.53
2023-05-20T14:25:53.030Z,34.18
2023-05-20T14:28:19.703Z,33.57
2023-05-20T14:30:46.378Z,32.95
2023-05-20T14:33:13.056Z,32.21
2023-05-20T14:35:39.720Z,31.71
2023-05-20T14:38:06.970Z,31.45
2023-05-20T14:40:33.814Z,30.93
2023-05-20T14:43:00.611Z,30.93
2023-05-20T14:45:27.381Z,31.01
2023-05-20T14:47:54.056Z,30.73
2023-05-20T14:50:20.860Z,30.94
2023-05-20T14:52:47.494Z,30.39
2023-05-20T14:55:14.160Z,29.83
2023-05-20T14:57:40.954Z,29.69
2023-05-20T15:00:08.807Z,29.45
2023-05-20T15:02:35.669Z,29.04
2023-05-20T15:05:02.333Z,28.78
2023-05-20T15:07:29.330Z,28.66
2023-05-20T15:09:55.931Z,28.22
2023-05-20T15:12:22.545Z,28.22
2023-05-20T15:14:49.184Z,28.60
2023-05-20T15:17:15.864Z,28.85
2023-05-20T15:19:42.770Z,29.05
2023-05-20T15:22:09.494Z,29.32
2023-05-20T15:24:36.101Z,29.56
2023-05-20T15:27:03.836Z,29.74
2023-05-20T15:29:30.532Z,29.82
2023-05-20T15:31:57.224Z,29.73
2023-05-20T15:34:23.933Z,29.56
2023-05-20T15:36:50.578Z,29.21
2023-05-20T15:39:17.236Z,28.97
2023-05-20T15:41:43.925Z,28.80
2023-05-20T15:44:10.594Z,28.59
2023-05-20T15:46:37.410Z,28.71
2023-05-20T15:49:04.850Z,28.91
2023-05-20T15:51:31.691Z,28.91
2023-05-20T15:53:58.276Z,28.78
2023-05-20T15:56:24.930Z,28.72
2023-05-20T15:58:51.568Z,28.77
2023-05-20T16:01:18.149Z,28.81
2023-05-20T16:03:44.856Z,28.72
2023-05-20T16:06:12.632Z,28.62
2023-05-20T16:08:40.743Z,28.58
2023-05-20T16:11:08.010Z,28.28
2023-05-20T16:13:34.678Z,28.30
2023-05-20T16:16:01.397Z,28.01
2023-05-20T16:18:30.889Z,27.81
2023-05-20T16:20:57.910Z,27.61
2023-05-20T16:23:24.692Z,27.46
2023-05-20T16:25:51.455Z,27.36
2023-05-20T16:28:18.281Z,27.28
2023-05-20T16:30:45.061Z,27.25
2023-05-20T16:33:13.206Z,27.17
2023-05-20T16:35:40.034Z,27.15
2023-05-20T16:38:06.916Z,26.91
2023-05-20T16:40:33.882Z,26.73
2023-05-20T16:43:01.165Z,26.61
2023-05-20T16:45:27.807Z,26.41
2023-05-20T16:47:54.802Z,26.32
2023-05-20T16:50:21.524Z,26.21
2023-05-20T16:52:48.197Z,26.25
2023-05-20T16:55:14.986Z,26.15
2023-05-20T16:57:42.791Z,26.09
2023-05-20T17:00:10.670Z,26.05
2023-05-20T17:02:37.386Z,25.95
2023-05-20T17:05:04.463Z,25.75
2023-05-20T17:07:31.143Z,25.61
2023-05-20T17:09:57.831Z,25.35
2023-05-20T17:12:24.630Z,25.30
2023-05-20T17:14:51.278Z,25.15
2023-05-20T17:17:17.918Z,24.95
2023-05-20T17:19:44.517Z,24.70
2023-05-20T17:22:11.427Z,24.57
2023-05-20T17:24:38.137Z,24.53
2023-05-20T17:27:06.174Z,24.40
2023-05-20T17:29:32.891Z,24.27
2023-05-20T17:31:59.554Z,24.21
2023-05-20T17:34:26.370Z,24.01
2023-05-20T17:36:52.986Z,23.82
2023-05-20T17:39:19.735Z,23.66
2023-05-20T17:41:46.469Z,23.58
2023-05-20T17:44:13.155Z,23.40
2023-05-20T17:46:39.906Z,23.36
2023-05-20T17:49:06.668Z,23.06
2023-05-20T17:51:33.296Z,22.99
2023-05-20T17:53:59.908Z,22.86
2023-05-20T17:56:26.815Z,22.75
2023-05-20T17:58:54.945Z,22.62
2023-05-20T18:01:23.417Z,22.51
2023-05-20T18:03:50.336Z,22.38
2023-05-20T18:06:18.059Z,22.24
2023-05-20T18:08:44.780Z,22.22
2023-05-20T18:11:11.644Z,21.90
2023-05-20T18:13:38.357Z,21.83
2023-05-20T18:16:05.594Z,21.66
2023-05-20T18:18:32.318Z,21.56
2023-05-20T18:20:58.993Z,21.45
2023-05-20T18:23:25.785Z,21.33
2023-05-20T18:25:52.432Z,21.13
2023-05-20T18:28:19.024Z,20.98
2023-05-20T18:30:45.834Z,20.82
2023-05-20T18:33:13.611Z,20.72
2023-05-20T18:35:40.314Z,20.71
2023-05-20T18:38:07.241Z,20.55
2023-05-20T18:40:34.163Z,20.33
2023-05-20T18:43:01.144Z,20.25
2023-05-20T18:45:27.763Z,20.07
2023-05-20T18:47:54.823Z,19.97
2023-05-20T18:50:21.649Z,19.81
2023-05-20T18:52:48.280Z,19.60
2023-05-20T18:55:14.949Z,19.61
2023-05-20T18:57:41.560Z,19.48
2023-05-20T19:00:12.433Z,19.35
2023-05-20T19:02:40.202Z,19.13
2023-05-20T19:05:08.388Z,18.97
2023-05-20T19:07:35.271Z,18.96
2023-05-20T19:10:02.447Z,18.84
2023-05-20T19:12:29.265Z,18.82
2023-05-20T19:14:56.120Z,18.72
2023-05-20T19:17:22.953Z,18.60
2023-05-20T19:19:49.943Z,18.56
2023-05-20T19:22:16.630Z,18.45
2023-05-20T19:24:43.304Z,18.30
2023-05-20T19:27:09.908Z,18.18
2023-05-20T19:29:36.544Z,18.18
2023-05-20T19:32:03.496Z,18.03
2023-05-20T19:34:30.101Z,17.96
2023-05-20T19:36:57.098Z,17.92
2023-05-20T19:39:23.911Z,17.90
2023-05-20T19:41:50.810Z,17.86
2023-05-20T19:44:17.420Z,17.82
2023-05-20T19:46:44.056Z,17.81
2023-05-20T19:49:10.982Z,17.66
2023-05-20T19:51:37.764Z,17.57
2023-05-20T19:54:04.373Z,17.49
2023-05-20T19:56:31.014Z,17.46
2023-05-20T19:59:01.524Z,17.33
2023-05-20T20:01:28.437Z,17.30
2023-05-20T20:03:55.398Z,17.22
2023-05-20T20:06:22.363Z,17.16
2023-05-20T20:08:49.248Z,17.15
2023-05-20T20:11:16.010Z,17.02
2023-05-20T20:13:42.667Z,17.03
2023-05-20T20:16:09.396Z,16.86
2023-05-20T20:18:36.065Z,16.84
2023-05-20T20:21:05.961Z,16.77
2023-05-20T20:23:33.027Z,16.71
2023-05-20T20:25:59.731Z,16.67
2023-05-20T20:28:26.400Z,16.63
2023-05-20T20:30:53.088Z,16.60
2023-05-20T20:33:19.791Z,16.50
2023-05-20T20:35:46.780Z,16.52
2023-05-20T20:38:14.783Z,16.44
2023-05-20T20:40:42.537Z,16.38
2023-05-20T20:43:11.097Z,16.38
2023-05-20T20:45:37.950Z,16.29
2023-05-20T20:48:07.943Z,16.21
2023-05-20T20:50:35.788Z,16.17
2023-05-20T20:53:02.744Z,16.15
2023-05-20T20:55:32.225Z,16.16
2023-05-20T20:58:02.770Z,16.14
2023-05-20T21:00:29.727Z,16.09
2023-05-20T21:02:56.476Z,16.04
2023-05-20T21:05:26.545Z,16.02
2023-05-20T21:07:58.457Z,15.94
2023-05-20T21:10:29.694Z,15.84
2023-05-20T21:12:57.430Z,15.83
2023-05-20T21:15:25.307Z,15.75
2023-05-20T21:17:52.458Z,15.75
2023-05-20T21:20:21.327Z,15.62
2023-05-20T21:22:48.434Z,15.61
2023-05-20T21:25:15.122Z,15.55
2023-05-20T21:27:41.950Z,15.54
2023-05-20T21:30:11.708Z,15.57
2023-05-20T21:32:38.574Z,15.54
2023-05-20T21:35:05.687Z,15.44
2023-05-20T21:37:32.312Z,15.42
2023-05-20T21:39:58.920Z,15.39
2023-05-20T21:42:25.528Z,15.39
2023-05-20T21:44:52.166Z,15.53
2023-05-20T21:47:20.671Z,15.47
2023-05-20T21:49:48.182Z,15.52
2023-05-20T21:52:14.980Z,15.56
2023-05-20T21:54:41.937Z,15.58
2023-05-20T21:57:08.664Z,15.56
2023-05-20T21:59:35.333Z,15.48
2023-05-20T22:02:02.114Z,15.40
2023-05-20T22:04:30.528Z,15.34
2023-05-20T22:06:57.211Z,15.37
2023-05-20T22:09:23.935Z,15.30
2023-05-20T22:11:50.858Z,15.23
2023-05-20T22:14:17.674Z,15.22
2023-05-20T22:16:46.600Z,15.18
2023-05-20T22:19:15.206Z,15.13
2023-05-20T22:21:50.207Z,15.08
2023-05-20T22:24:17.991Z,15.16
2023-05-20T22:26:45.150Z,15.16
2023-05-20T22:29:11.886Z,15.10
2023-05-20T22:31:38.550Z,14.99
2023-05-20T22:34:05.557Z,14.97
2023-05-20T22:36:36.378Z,14.93
2023-05-20T22:39:04.467Z,14.91
2023-05-20T22:41:31.435Z,14.87
2023-05-20T22:43:58.500Z,14.85
2023-05-20T22:46:25.730Z,14.82
2023-05-20T22:48:53.146Z,14.78
2023-05-20T22:51:21.351Z,14.75
2023-05-20T22:53:48.715Z,14.68
2023-05-20T22:56:15.649Z,14.75
2023-05-20T22:58:42.618Z,14.67
2023-05-20T23:01:10.488Z,14.71
2023-05-20T23:03:38.002Z,14.69
2023-05-20T23:06:04.703Z,14.63
2023-05-20T23:08:31.372Z,14.57
2023-05-20T23:10:58.036Z,14.48
2023-05-20T23:13:24.968Z,14.49
2023-05-20T23:15:51.622Z,14.45
2023-05-20T23:18:18.887Z,14.44
2023-05-20T23:20:45.617Z,14.48
2023-05-20T23:23:12.410Z,14.52
2023-05-20T23:25:39.458Z,14.45
2023-05-20T23:28:06.492Z,14.43
2023-05-20T23:30:34.787Z,14.33
2023-05-20T23:33:02.001Z,14.30
2023-05-20T23:35:28.791Z,14.25
2023-05-20T23:37:55.498Z,14.23
2023-05-20T23:40:22.333Z,14.24
2023-05-20T23:42:48.955Z,14.22
2023-05-20T23:45:15.587Z,14.21
2023-05-20T23:47:43.560Z,14.19
2023-05-20T23:50:10.855Z,14.09
2023-05-20T23:52:37.454Z,14.14
2023-05-20T23:55:04.347Z,14.05
2023-05-20T23:57:30.981Z,14.05
2023-05-20T23:59:57.588Z,14.01
